createdAt,value
2023-10-25T00:01:43.408Z,9.37
2023-10-25T00:04:15.807Z,9.39
2023-10-25T00:06:46.450Z,9.40
2023-10-25T00:09:18.595Z,9.42
2023-10-25T00:11:51.316Z,9.43
2023-10-25T00:14:21.089Z,9.44
2023-10-25T00:16:51.227Z,9.45
2023-10-25T00:19:21.310Z,9.46
2023-10-25T00:21:51.063Z,9.47
2023-10-25T00:24:23.373Z,9.50
2023-10-25T00:26:55.390Z,9.53
2023-10-25T00:29:25.328Z,9.56
2023-10-25T00:31:55.444Z,9.59
2023-10-25T00:34:25.371Z,9.60
2023-10-25T00:36:55.981Z,9.64
2023-10-25T00:39:30.342Z,9.65
2023-10-25T00:42:00.160Z,9.66
2023-10-25T00:44:29.920Z,9.70
2023-10-25T00:47:02.738Z,9.73
2023-10-25T00:49:32.941Z,9.75
2023-10-25T00:52:02.968Z,9.76
2023-10-25T00:54:33.054Z,9.76
2023-10-25T00:57:05.871Z,9.76
2023-10-25T00:59:36.321Z,9.76
2023-10-25T01:02:11.012Z,9.76
2023-10-25T01:04:40.900Z,9.77
2023-10-25T01:07:10.921Z,9.78
2023-10-25T01:09:41.140Z,9.79
2023-10-25T01:12:14.391Z,9.78
2023-10-25T01:14:44.170Z,9.77
2023-10-25T01:17:14.095Z,9.73
2023-10-25T01:19:44.139Z,9.70
2023-10-25T01:22:16.434Z,9.69
2023-10-25T01:24:46.290Z,9.68
2023-10-25T01:27:16.062Z,9.69
2023-10-25T01:29:45.829Z,9.71
2023-10-25T01:32:15.602Z,9.68
2023-10-25T01:34:45.656Z,9.70
2023-10-25T01:37:20.759Z,9.70
2023-10-25T01:39:50.576Z,9.69
2023-10-25T01:42:20.488Z,9.68
2023-10-25T01:44:50.289Z,9.71
2023-10-25T01:47:22.511Z,9.72
2023-10-25T01:49:54.510Z,9.73
2023-10-25T01:52:26.756Z,9.75
2023-10-25T01:54:56.555Z,9.76
2023-10-25T01:57:28.749Z,9.76
2023-10-25T02:00:02.807Z,9.77
2023-10-25T02:02:32.740Z,9.79
2023-10-25T02:05:05.011Z,9.82
2023-10-25T02:07:35.526Z,9.85
2023-10-25T02:10:05.860Z,9.87
2023-10-25T02:12:35.730Z,9.87
2023-10-25T02:15:06.896Z,9.91
2023-10-25T02:17:36.738Z,9.92
2023-10-25T02:20:07.953Z,9.97
2023-10-25T02:22:39.033Z,10.00
2023-10-25T02:25:09.725Z,10.04
2023-10-25T02:27:39.693Z,10.05
2023-10-25T02:30:10.933Z,10.07
2023-10-25T02:32:40.780Z,10.08
2023-10-25T02:35:11.259Z,10.08
2023-10-25T02:37:41.122Z,10.08
2023-10-25T02:40:14.240Z,10.11
2023-10-25T02:42:45.849Z,10.11
2023-10-25T02:45:15.742Z,10.15
2023-10-25T02:47:45.554Z,10.16
2023-10-25T02:50:16.801Z,10.18
2023-10-25T02:52:49.584Z,10.19
2023-10-25T02:55:21.764Z,10.21
2023-10-25T02:57:51.573Z,10.23
2023-10-25T03:00:21.948Z,10.26
2023-10-25T03:02:51.748Z,10.29
2023-10-25T03:05:21.878Z,10.29
2023-10-25T03:07:51.644Z,10.30
2023-10-25T03:10:22.357Z,10.28
2023-10-25T03:12:54.596Z,10.30
2023-10-25T03:15:29.258Z,10.29
2023-10-25T03:17:59.534Z,10.30
2023-10-25T03:20:29.869Z,10.32
2023-10-25T03:22:59.728Z,10.33
2023-10-25T03:25:31.730Z,10.33
2023-10-25T03:28:01.658Z,10.32
2023-10-25T03:30:31.572Z,10.33
2023-10-25T03:33:01.372Z,10.31
2023-10-25T03:35:31.594Z,10.31
2023-10-25T03:38:01.398Z,10.32
2023-10-25T03:40:31.127Z,10.34
2023-10-25T03:43:00.846Z,10.32
2023-10-25T03:45:32.997Z,10.34
2023-10-25T03:48:02.794Z,10.34
2023-10-25T03:50:35.072Z,10.33
2023-10-25T03:53:04.841Z,10.32
2023-10-25T03:55:36.846Z,10.31
2023-10-25T03:58:06.580Z,10.32
2023-10-25T04:00:36.380Z,10.32
2023-10-25T04:03:06.412Z,10.34
2023-10-25T04:05:41.697Z,10.33
2023-10-25T04:08:13.986Z,10.31
2023-10-25T04:10:51.697Z,10.30
2023-10-25T04:13:21.951Z,10.28
2023-10-25T04:16:01.308Z,10.31
2023-10-25T04:18:32.855Z,10.31
2023-10-25T04:21:11.931Z,10.32
2023-10-25T04:23:42.313Z,10.33
2023-10-25T04:26:13.278Z,10.31
2023-10-25T04:28:44.287Z,10.32
2023-10-25T04:31:14.270Z,10.29
2023-10-25T04:33:47.224Z,10.31
2023-10-25T04:36:17.142Z,10.32
2023-10-25T04:38:47.432Z,10.35
2023-10-25T04:41:19.495Z,10.37
2023-10-25T04:43:49.396Z,10.37
2023-10-25T04:46:19.324Z,10.39
2023-10-25T04:48:49.660Z,10.43
2023-10-25T04:51:19.511Z,10.43
2023-10-25T04:53:51.885Z,10.40
2023-10-25T04:56:28.465Z,10.42
2023-10-25T04:58:58.286Z,10.44
2023-10-25T05:01:30.717Z,10.45
2023-10-25T05:04:00.559Z,10.46
2023-10-25T05:06:33.803Z,10.47
2023-10-25T05:09:04.607Z,10.48
2023-10-25T05:11:39.296Z,10.48
2023-10-25T05:14:10.024Z,10.49
2023-10-25T05:16:40.878Z,10.51
2023-10-25T05:19:14.220Z,10.53
2023-10-25T05:21:49.062Z,10.55
2023-10-25T05:24:20.081Z,10.57
2023-10-25T05:26:51.166Z,10.59
2023-10-25T05:29:21.768Z,10.57
2023-10-25T05:31:53.147Z,10.59
2023-10-25T05:34:24.104Z,10.62
2023-10-25T05:36:55.018Z,10.62
2023-10-25T05:39:28.249Z,10.66
2023-10-25T05:42:00.167Z,10.68
2023-10-25T05:44:30.850Z,10.68
2023-10-25T05:47:00.632Z,10.66
2023-10-25T05:49:31.461Z,10.64
2023-10-25T05:52:04.843Z,10.63
2023-10-25T05:54:36.307Z,10.65
2023-10-25T05:57:11.645Z,10.66
2023-10-25T05:59:44.567Z,10.67
2023-10-25T06:02:16.260Z,10.70
2023-10-25T06:04:47.063Z,10.70
2023-10-25T06:07:22.720Z,10.71
2023-10-25T06:09:53.504Z,10.69
2023-10-25T06:12:24.187Z,10.67
2023-10-25T06:14:56.111Z,10.68
2023-10-25T06:17:26.070Z,10.69
2023-10-25T06:19:55.844Z,10.69
2023-10-25T06:22:25.786Z,10.68
2023-10-25T06:24:55.620Z,10.69
2023-10-25T06:27:25.578Z,10.69
2023-10-25T06:29:55.481Z,10.68
2023-10-25T06:32:25.367Z,10.69
2023-10-25T06:34:55.251Z,10.69
2023-10-25T06:37:26.072Z,10.69
2023-10-25T06:39:59.459Z,10.69
2023-10-25T06:42:30.329Z,10.66
2023-10-25T06:45:01.131Z,10.67
2023-10-25T06:47:34.034Z,10.67
2023-10-25T06:50:07.253Z,10.69
2023-10-25T06:52:43.131Z,10.70
2023-10-25T06:55:17.606Z,10.72
2023-10-25T06:57:50.584Z,10.72
2023-10-25T07:00:23.311Z,10.75
2023-10-25T07:02:54.897Z,10.74
2023-10-25T07:05:27.869Z,10.74
2023-10-25T07:07:58.961Z,10.77
2023-10-25T07:10:29.980Z,10.79
2023-10-25T07:13:01.201Z,10.81
2023-10-25T07:15:32.573Z,10.80
2023-10-25T07:18:02.397Z,10.84
2023-10-25T07:20:34.603Z,10.83
2023-10-25T07:23:06.532Z,10.82
2023-10-25T07:25:39.541Z,10.84
2023-10-25T07:28:09.352Z,10.86
2023-10-25T07:30:39.161Z,10.88
2023-10-25T07:33:11.488Z,10.89
2023-10-25T07:35:43.288Z,10.89
2023-10-25T07:38:15.338Z,10.87
2023-10-25T07:40:49.928Z,10.85
2023-10-25T07:43:21.861Z,10.85
2023-10-25T07:45:54.089Z,10.85
2023-10-25T07:48:28.682Z,10.85
2023-10-25T07:51:05.753Z,10.84
2023-10-25T07:53:35.633Z,10.82
2023-10-25T07:57:06.063Z,10.79
2023-10-25T07:59:01.035Z,10.77
2023-10-25T08:01:33.252Z,10.76
2023-10-25T08:04:03.227Z,10.75
2023-10-25T08:06:33.065Z,10.74
2023-10-25T08:09:05.464Z,10.71
2023-10-25T08:11:38.029Z,10.67
2023-10-25T08:14:09.272Z,10.65
2023-10-25T08:16:43.451Z,10.65
2023-10-25T08:19:13.797Z,10.64
2023-10-25T08:21:43.893Z,10.64
2023-10-25T08:24:13.767Z,10.64
2023-10-25T08:26:46.992Z,10.64
2023-10-25T08:29:19.104Z,10.62
2023-10-25T08:31:50.986Z,10.62
2023-10-25T08:34:21.067Z,10.63
2023-10-25T08:36:50.957Z,10.66
2023-10-25T08:39:22.788Z,10.66
2023-10-25T08:41:54.129Z,10.65
2023-10-25T08:44:26.593Z,10.66
2023-10-25T08:46:56.981Z,10.66
2023-10-25T08:49:27.070Z,10.68
2023-10-25T08:51:57.034Z,10.70
2023-10-25T08:54:28.828Z,10.69
2023-10-25T08:56:59.014Z,10.70
2023-10-25T08:59:31.031Z,10.73
2023-10-25T09:02:01.002Z,10.73
2023-10-25T09:04:30.932Z,10.73
2023-10-25T09:07:01.058Z,10.74
2023-10-25T09:09:43.271Z,10.74
2023-10-25T09:12:24.612Z,10.74
2023-10-25T09:14:57.696Z,10.75
2023-10-25T09:17:27.513Z,10.78
2023-10-25T09:19:57.334Z,10.81
2023-10-25T09:22:28.599Z,10.84
2023-10-25T09:25:00.538Z,10.87
2023-10-25T09:27:34.072Z,10.89
2023-10-25T09:30:27.552Z,10.91
2023-10-25T09:32:58.465Z,10.94
2023-10-25T09:35:30.958Z,10.99
2023-10-25T09:38:01.057Z,11.01
2023-10-25T09:40:30.950Z,11.03
2023-10-25T09:43:12.313Z,11.06
2023-10-25T09:45:44.613Z,11.09
2023-10-25T09:48:17.047Z,11.10
2023-10-25T09:51:01.951Z,11.13
2023-10-25T09:53:38.706Z,11.14
2023-10-25T09:56:11.903Z,11.17
2023-10-25T09:58:43.531Z,11.17
2023-10-25T10:01:15.439Z,11.17
2023-10-25T10:03:50.734Z,11.19
2023-10-25T10:06:32.299Z,11.21
2023-10-25T10:09:22.579Z,11.23
2023-10-25T10:11:58.390Z,11.24
2023-10-25T10:14:33.816Z,11.24
2023-10-25T10:17:10.775Z,11.24
2023-10-25T10:19:44.607Z,11.28
2023-10-25T10:22:18.030Z,11.33
2023-10-25T10:24:49.884Z,11.37
2023-10-25T10:27:21.085Z,11.39
2023-10-25T10:29:51.285Z,11.44
2023-10-25T10:32:21.555Z,11.45
2023-10-25T10:34:57.966Z,11.50
2023-10-25T10:37:32.997Z,11.54
2023-10-25T10:40:16.218Z,11.59
2023-10-25T10:42:46.247Z,11.62
2023-10-25T10:45:19.336Z,11.66
2023-10-25T10:47:59.300Z,11.67
2023-10-25T10:50:31.763Z,11.71
2023-10-25T10:53:03.840Z,11.75
2023-10-25T10:55:37.145Z,11.77
2023-10-25T10:58:09.910Z,11.80
2023-10-25T11:00:46.105Z,11.79
2023-10-25T11:03:17.856Z,11.79
2023-10-25T11:05:47.816Z,11.81
2023-10-25T11:08:22.273Z,11.82
2023-10-25T11:10:52.347Z,11.82
2023-10-25T11:13:22.485Z,11.85
2023-10-25T11:16:03.325Z,11.86
2023-10-25T11:18:35.807Z,11.86
2023-10-25T11:21:05.709Z,11.88
2023-10-25T11:23:38.334Z,11.89
2023-10-25T11:26:08.113Z,11.90
2023-10-25T11:28:41.373Z,11.89
2023-10-25T11:31:12.223Z,11.90
2023-10-25T11:33:48.684Z,11.91
2023-10-25T11:36:21.048Z,11.94
2023-10-25T11:38:50.943Z,11.98
2023-10-25T11:41:21.632Z,12.00
2023-10-25T11:43:54.059Z,11.99
2023-10-25T11:46:27.584Z,12.02
2023-10-25T11:49:01.541Z,12.01
2023-10-25T11:51:35.660Z,12.04
2023-10-25T11:54:18.047Z,12.08
2023-10-25T11:56:51.073Z,12.13
2023-10-25T11:59:21.432Z,12.16
2023-10-25T12:01:51.620Z,12.18
2023-10-25T12:04:21.455Z,12.19
2023-10-25T12:06:53.735Z,12.22
2023-10-25T12:09:23.749Z,12.26
2023-10-25T12:11:53.528Z,12.31
2023-10-25T12:14:32.382Z,12.35
2023-10-25T12:17:02.661Z,12.39
2023-10-25T12:19:32.623Z,12.42
2023-10-25T12:22:02.616Z,12.46
2023-10-25T12:24:34.940Z,12.51
2023-10-25T12:27:06.080Z,12.55
2023-10-25T12:29:36.873Z,12.59
2023-10-25T12:32:08.077Z,12.61
2023-10-25T12:34:37.886Z,12.63
2023-10-25T12:37:10.139Z,12.65
2023-10-25T12:39:40.256Z,12.67
2023-10-25T12:42:10.366Z,12.72
2023-10-25T12:44:40.355Z,12.77
2023-10-25T12:47:10.374Z,12.79
2023-10-25T12:49:40.179Z,12.81
2023-10-25T12:52:10.323Z,12.82
2023-10-25T12:54:40.114Z,12.86
2023-10-25T12:57:09.938Z,12.90
2023-10-25T12:59:42.254Z,12.92
2023-10-25T13:02:12.118Z,12.94
2023-10-25T13:04:47.707Z,12.99
2023-10-25T13:07:20.294Z,13.05
2023-10-25T13:09:50.033Z,13.10
2023-10-25T13:12:22.030Z,13.15
2023-10-25T13:14:51.992Z,13.19
2023-10-25T13:17:21.850Z,13.22
2023-10-25T13:19:51.754Z,13.25
2023-10-25T13:22:24.311Z,13.31
2023-10-25T13:24:54.142Z,13.37
2023-10-25T13:27:26.220Z,13.42
2023-10-25T13:29:57.345Z,13.45
2023-10-25T13:32:30.450Z,13.45
2023-10-25T13:35:02.792Z,13.44
2023-10-25T13:37:32.860Z,13.44
2023-10-25T13:40:06.189Z,13.45
2023-10-25T13:42:36.290Z,13.46
2023-10-25T13:45:07.520Z,13.51
2023-10-25T13:47:41.742Z,13.54
2023-10-25T13:50:12.424Z,13.62
2023-10-25T13:52:42.172Z,13.67
2023-10-25T13:55:14.566Z,13.66
2023-10-25T13:57:44.972Z,13.60
2023-10-25T14:00:17.291Z,13.53
2023-10-25T14:02:47.210Z,13.50
2023-10-25T14:05:17.806Z,13.44
2023-10-25T14:07:47.711Z,13.37
2023-10-25T14:10:17.854Z,13.29
2023-10-25T14:12:47.709Z,13.21
2023-10-25T14:15:17.550Z,13.16
2023-10-25T14:17:49.675Z,13.11
2023-10-25T14:20:19.626Z,13.10
2023-10-25T14:22:49.406Z,13.04
2023-10-25T14:25:19.639Z,13.00
2023-10-25T14:27:49.668Z,12.97
2023-10-25T14:30:19.932Z,12.91
2023-10-25T14:32:52.055Z,12.89
2023-10-25T14:35:24.369Z,12.84
2023-10-25T14:37:54.253Z,12.80
2023-10-25T14:40:24.552Z,12.75
2023-10-25T14:42:54.858Z,12.69
2023-10-25T14:45:29.756Z,12.63
2023-10-25T14:48:02.093Z,12.57
2023-10-25T14:50:36.221Z,12.56
2023-10-25T14:53:06.839Z,12.49
2023-10-25T14:55:39.009Z,12.50
2023-10-25T14:58:08.755Z,12.48
2023-10-25T15:00:39.017Z,12.48
2023-10-25T15:03:09.391Z,12.49
2023-10-25T15:05:42.923Z,12.45
2023-10-25T15:08:13.791Z,12.44
2023-10-25T15:10:43.614Z,12.46
2023-10-25T15:13:16.023Z,12.47
2023-10-25T15:15:45.854Z,12.47
2023-10-25T15:18:15.796Z,12.49
2023-10-25T15:20:45.670Z,12.49
2023-10-25T15:23:15.346Z,12.50
2023-10-25T15:25:45.054Z,12.52
2023-10-25T15:28:17.077Z,12.47
2023-10-25T15:30:48.534Z,12.48
2023-10-25T15:33:20.900Z,12.44
2023-10-25T15:35:58.324Z,12.41
2023-10-25T15:38:31.571Z,12.38
2023-10-25T15:41:17.558Z,12.38
2023-10-25T15:43:48.367Z,12.36
2023-10-25T15:46:22.360Z,12.33
2023-10-25T15:48:55.446Z,12.30
2023-10-25T15:51:28.767Z,12.29
2023-10-25T15:53:59.322Z,12.25
2023-10-25T15:56:31.416Z,12.22
2023-10-25T15:59:05.180Z,12.20
2023-10-25T16:01:45.495Z,12.18
2023-10-25T16:04:24.308Z,12.18
2023-10-25T16:06:54.894Z,12.18
2023-10-25T16:09:24.658Z,12.14
2023-10-25T16:11:54.487Z,12.11
2023-10-25T16:14:24.826Z,12.11
2023-10-25T16:16:55.193Z,12.11
2023-10-25T16:19:27.422Z,12.10
2023-10-25T16:21:57.266Z,12.09
2023-10-25T16:24:27.135Z,12.11
2023-10-25T16:27:00.247Z,12.13
2023-10-25T16:29:33.947Z,12.10
2023-10-25T16:32:04.564Z,12.09
2023-10-25T16:34:34.494Z,12.08
2023-10-25T16:37:07.469Z,12.07
2023-10-25T16:39:39.543Z,12.07
2023-10-25T16:42:13.075Z,12.05
2023-10-25T16:44:43.424Z,12.02
2023-10-25T16:47:13.518Z,12.00
2023-10-25T16:49:43.753Z,11.94
2023-10-25T16:52:13.617Z,11.91
2023-10-25T16:54:43.505Z,11.90
2023-10-25T16:57:13.543Z,11.88
2023-10-25T16:59:45.483Z,11.89
2023-10-25T17:02:17.926Z,11.90
2023-10-25T17:04:47.903Z,11.90
2023-10-25T17:07:17.820Z,11.90
2023-10-25T17:09:47.821Z,11.92
2023-10-25T17:12:17.695Z,11.91
2023-10-25T17:14:55.864Z,11.88
2023-10-25T17:17:25.800Z,11.86
2023-10-25T17:19:55.529Z,11.82
2023-10-25T17:22:27.833Z,11.80
2023-10-25T17:24:57.559Z,11.78
2023-10-25T17:27:27.424Z,11.78
2023-10-25T17:29:57.232Z,11.82
2023-10-25T17:32:27.192Z,11.84
2023-10-25T17:34:57.308Z,11.83
2023-10-25T17:37:29.393Z,11.80
2023-10-25T17:39:59.417Z,11.75
2023-10-25T17:42:29.279Z,11.71
2023-10-25T17:44:59.053Z,11.69
2023-10-25T17:47:32.932Z,11.70
2023-10-25T17:50:06.213Z,11.71
2023-10-25T17:52:46.210Z,11.69
2023-10-25T17:55:19.796Z,11.68
2023-10-25T17:57:49.738Z,11.65
2023-10-25T18:00:22.016Z,11.67
2023-10-25T18:02:52.016Z,11.64
2023-10-25T18:05:23.226Z,11.60
2023-10-25T18:07:53.735Z,11.57
2023-10-25T18:10:24.176Z,11.54
2023-10-25T18:12:54.203Z,11.54
2023-10-25T18:15:24.064Z,11.52
2023-10-25T18:17:56.141Z,11.55
2023-10-25T18:20:26.051Z,11.53
2023-10-25T18:22:55.998Z,11.54
2023-10-25T18:25:30.104Z,11.59
2023-10-25T18:28:04.880Z,11.60
2023-10-25T18:31:53.911Z,11.59
2023-10-25T18:33:25.077Z,11.58
2023-10-25T18:35:57.008Z,11.59
2023-10-25T18:38:27.141Z,11.62
2023-10-25T18:40:59.720Z,11.62
2023-10-25T18:43:34.456Z,11.60
2023-10-25T18:46:10.106Z,11.60
2023-10-25T18:48:40.567Z,11.63
2023-10-25T18:51:11.059Z,11.61
2023-10-25T18:53:43.614Z,11.57
2023-10-25T18:56:15.696Z,11.55
2023-10-25T18:58:48.171Z,11.57
2023-10-25T19:01:21.432Z,11.56
2023-10-25T19:03:52.066Z,11.57
2023-10-25T19:06:34.921Z,11.58
2023-10-25T19:09:07.356Z,11.57
2023-10-25T19:11:37.372Z,11.61
2023-10-25T19:14:07.977Z,11.58
2023-10-25T19:16:40.322Z,11.56
2023-10-25T19:19:13.121Z,11.52
2023-10-25T19:21:43.112Z,11.49
2023-10-25T19:24:13.139Z,11.45
2023-10-25T19:26:48.194Z,11.45
2023-10-25T19:29:23.536Z,11.46
2023-10-25T19:31:56.319Z,11.47
2023-10-25T19:34:29.273Z,11.50
2023-10-25T19:37:01.255Z,11.52
2023-10-25T19:39:32.476Z,11.52
2023-10-25T19:42:03.397Z,11.51
2023-10-25T19:44:33.294Z,11.49
2023-10-25T19:47:03.485Z,11.47
2023-10-25T19:49:33.433Z,11.46
2023-10-25T19:52:03.832Z,11.47
2023-10-25T19:54:34.169Z,11.47
2023-10-25T19:57:04.243Z,11.48
2023-10-25T19:59:34.233Z,11.48
2023-10-25T20:02:04.272Z,11.47
2023-10-25T20:04:34.210Z,11.49
2023-10-25T20:07:04.848Z,11.54
2023-10-25T20:09:34.572Z,11.57
2023-10-25T20:12:07.364Z,11.60
2023-10-25T20:14:37.224Z,11.63
2023-10-25T20:17:12.399Z,11.60
2023-10-25T20:19:42.155Z,11.60
2023-10-25T20:22:11.983Z,11.57
2023-10-25T20:24:45.716Z,11.56
2023-10-25T20:27:18.298Z,11.52
2023-10-25T20:29:49.846Z,11.51
2023-10-25T20:32:19.952Z,11.52
2023-10-25T20:34:52.324Z,11.53
2023-10-25T20:37:22.190Z,11.54
2023-10-25T20:39:52.053Z,11.52
2023-10-25T20:42:22.585Z,11.53
2023-10-25T20:44:54.928Z,11.51
2023-10-25T20:47:25.397Z,11.48
2023-10-25T20:49:55.176Z,11.45
2023-10-25T20:52:25.095Z,11.41
2023-10-25T20:54:57.541Z,11.41
2023-10-25T20:57:27.352Z,11.39
2023-10-25T20:59:57.431Z,11.36
2023-10-25T21:02:27.252Z,11.34
2023-10-25T21:04:57.170Z,11.33
2023-10-25T21:07:29.418Z,11.34
2023-10-25T21:10:02.364Z,11.27
2023-10-25T21:12:32.622Z,11.23
2023-10-25T21:15:02.453Z,11.22
2023-10-25T21:17:32.554Z,11.21
2023-10-25T21:20:02.370Z,11.18
2023-10-25T21:22:32.182Z,11.17
2023-10-25T21:25:02.132Z,11.18
2023-10-25T21:27:32.091Z,11.19
2023-10-25T21:30:05.617Z,11.19
2023-10-25T21:32:35.910Z,11.21
2023-10-25T21:35:06.862Z,11.23
2023-10-25T21:37:41.388Z,11.25
2023-10-25T21:40:13.060Z,11.21
2023-10-25T21:42:42.846Z,11.21
2023-10-25T21:45:15.243Z,11.24
2023-10-25T21:47:47.090Z,11.23
2023-10-25T21:50:17.425Z,11.22
2023-10-25T21:52:49.727Z,11.19
2023-10-25T21:55:19.758Z,11.17
2023-10-25T21:59:45.070Z,11.19
2023-10-25T22:00:39.333Z,11.19
2023-10-25T22:03:09.129Z,11.16
2023-10-25T22:05:39.064Z,11.10
2023-10-25T22:08:08.972Z,11.07
2023-10-25T22:10:41.416Z,11.00
2023-10-25T22:13:13.594Z,10.92
2023-10-25T22:15:43.449Z,10.87
2023-10-25T22:18:13.460Z,10.82
2023-10-25T22:20:45.597Z,10.77
2023-10-25T22:23:15.557Z,10.70
2023-10-25T22:25:45.418Z,10.65
2023-10-25T22:28:15.293Z,10.59
2023-10-25T22:30:45.030Z,10.56
2023-10-25T22:33:17.362Z,10.52
2023-10-25T22:35:47.273Z,10.48
2023-10-25T22:38:17.160Z,10.44
2023-10-25T22:40:49.916Z,10.44
2023-10-25T22:43:19.631Z,10.43
2023-10-25T22:45:49.736Z,10.35
2023-10-25T22:48:20.243Z,10.33
2023-10-25T22:50:56.214Z,10.30
2023-10-25T22:53:28.275Z,10.28
2023-10-25T22:56:04.565Z,10.23
2023-10-25T22:58:34.455Z,10.19
2023-10-25T23:01:07.696Z,10.16
2023-10-25T23:03:37.588Z,10.12
2023-10-25T23:06:10.354Z,10.09
2023-10-25T23:08:42.611Z,10.07
2023-10-25T23:11:12.364Z,10.08
2023-10-25T23:13:44.400Z,10.06
2023-10-25T23:16:14.317Z,10.07
2023-10-25T23:18:47.797Z,10.05
2023-10-25T23:21:20.402Z,10.01
2023-10-25T23:23:53.964Z,9.96
2023-10-25T23:26:24.044Z,9.93
2023-10-25T23:28:53.906Z,9.94
2023-10-25T23:31:26.355Z,9.94
2023-10-25T23:33:56.135Z,9.92
2023-10-25T23:36:25.996Z,9.93
2023-10-25T23:38:58.835Z,9.90
2023-10-25T23:41:31.141Z,9.87
2023-10-25T23:44:04.349Z,9.86
2023-10-25T23:46:34.237Z,9.85
2023-10-25T23:49:06.633Z,9.84
2023-10-25T23:51:36.736Z,9.79
2023-10-25T23:54:43.283Z,9.76
2023-10-25T23:56:57.961Z,9.71
2023-10-25T23:59:30.118Z,9.67
